Time;durP1;ratioP1;P1;durP2;ratioP2;P2;SDS_P1;SDS_P2;PMS_P1;PMS_P2;Temp;Humidity;BMP_temperature;BMP_pressure;BME280_temperature;BME280_humidity;BME280_pressure;Samples;Min_cycle;Max_cycle;Signal;HPM_P1;HPM_P2
2022/04/17 00:02:03;;;;;;;4.22;3.50;;;;;;;5.52;63.55;99965.72;4997823;28;102712;-61
2022/04/17 00:04:31;;;;;;;4.28;3.22;;;;;;;5.52;63.83;99968.34;4995517;28;104077;-61
2022/04/17 00:07:00;;;;;;;4.28;3.30;;;;;;;5.66;63.31;99964.38;4997720;28;103253;-61
2022/04/17 00:09:29;;;;;;;3.70;3.40;;;;;;;6.18;62.19;99971.38;4994254;28;102976;-61
2022/04/17 00:11:57;;;;;;;3.70;3.30;;;;;;;6.64;60.28;99962.72;4994375;28;102641;-66
2022/04/17 00:14:25;;;;;;;3.97;3.17;;;;;;;6.49;60.38;99959.78;4972974;28;104205;-65
2022/04/17 00:16:54;;;;;;;3.50;3.20;;;;;;;5.99;61.65;99965.03;4995126;28;104301;-61
2022/04/17 00:19:22;;;;;;;4.03;3.43;;;;;;;5.86;61.53;99968.13;4997550;28;103264;-65
2022/04/17 00:21:50;;;;;;;3.65;3.22;;;;;;;5.69;62.88;99968.66;4995126;28;102846;-65
2022/04/17 00:24:18;;;;;;;4.10;3.40;;;;;;;5.73;63.20;99968.50;4993501;28;103614;-66
2022/04/17 00:26:51;;;;;;;3.80;3.40;;;;;;;5.54;63.29;99961.28;4992518;28;103804;-65
2022/04/17 00:29:19;;;;;;;3.50;3.20;;;;;;;5.61;62.63;99947.06;4970622;28;103253;-61
2022/04/17 00:31:47;;;;;;;3.45;3.15;;;;;;;5.77;62.93;99949.13;4994788;28;102867;-61
2022/04/17 00:34:15;;;;;;;3.40;3.10;;;;;;;5.86;63.04;99955.88;4967816;28;102758;-61
2022/04/17 00:36:44;;;;;;;4.25;3.20;;;;;;;5.91;62.58;99940.84;4974143;28;104793;-62
2022/04/17 00:39:12;;;;;;;4.27;3.40;;;;;;;5.52;63.05;99940.38;4994070;28;103235;-62
2022/04/17 00:41:40;;;;;;;4.28;3.30;;;;;;;5.41;62.79;99933.75;4989887;28;102695;-62
2022/04/17 00:44:13;;;;;;;4.57;3.33;;;;;;;5.21;63.41;99932.63;4996177;28;102911;-62
2022/04/17 00:46:42;;;;;;;3.40;3.10;;;;;;;5.15;63.61;99937.19;4991278;28;103416;-67
2022/04/17 00:49:10;;;;;;;3.40;2.95;;;;;;;5.05;64.08;99936.59;4993397;28;103247;-65
2022/04/17 00:51:39;;;;;;;3.67;3.28;;;;;;;4.80;64.90;99935.63;4992582;28;102901;-66
2022/04/17 00:54:12;;;;;;;3.72;3.40;;;;;;;4.93;64.38;99929.13;4993908;28;103876;-66
2022/04/17 00:56:42;;;;;;;3.90;3.20;;;;;;;4.89;64.84;99930.13;4994242;28;103237;-62
2022/04/17 00:59:13;;;;;;;4.05;3.35;;;;;;;4.73;65.96;99928.84;4993572;28;103184;-62
2022/04/17 01:01:44;;;;;;;4.03;3.40;;;;;;;4.75;65.67;99932.28;4990768;28;103395;-66
2022/04/17 01:04:14;;;;;;;3.80;3.10;;;;;;;4.81;65.27;99923.38;4997720;28;104144;-66
2022/04/17 01:06:42;;;;;;;5.25;3.10;;;;;;;4.73;64.77;99923.63;4995516;28;104374;-66
2022/04/17 01:09:11;;;;;;;3.35;3.05;;;;;;;4.72;65.33;99923.66;4964358;28;103402;-67
2022/04/17 01:11:40;;;;;;;3.90;2.90;;;;;;;4.70;65.57;99926.31;4966416;28;102766;-67
2022/04/17 01:14:12;;;;;;;3.45;3.10;;;;;;;4.59;65.97;99920.56;4993371;28;103766;-66
2022/04/17 01:16:42;;;;;;;3.17;2.88;;;;;;;4.63;65.89;99927.44;4994534;28;103682;-62
2022/04/17 01:19:13;;;;;;;4.33;3.07;;;;;;;4.56;65.61;99921.50;4968574;28;103207;-62
2022/04/17 01:21:46;;;;;;;3.40;3.10;;;;;;;4.39;66.44;99922.88;4991225;28;102648;-61
2022/04/17 01:27:04;;;;;;;5.50;3.03;;;;;;;4.49;65.83;99911.25;4993318;28;104066;-62
2022/04/17 01:29:35;;;;;;;3.47;3.17;;;;;;;4.38;66.23;99915.94;4993121;28;103255;-62
2022/04/17 01:32:05;;;;;;;3.08;2.78;;;;;;;4.39;66.52;99917.63;4968366;28;102802;-61
2022/04/17 01:34:33;;;;;;;3.60;2.80;;;;;;;4.28;66.84;99914.47;4997266;28;102874;-62
2022/04/17 01:37:03;;;;;;;2.95;2.58;;;;;;;4.26;67.22;99911.03;4990845;28;104002;-62
2022/04/17 01:39:33;;;;;;;3.35;3.05;;;;;;;4.27;66.70;99897.03;4996489;28;103209;-62
2022/04/17 01:42:01;;;;;;;3.17;2.90;;;;;;;4.25;67.25;99899.72;4976726;28;102587;-61
2022/04/17 01:44:30;;;;;;;4.00;3.25;;;;;;;4.17;67.56;99898.22;4970462;28;104134;-62
2022/04/17 01:47:02;;;;;;;4.13;3.30;;;;;;;4.20;67.87;99890.28;4991942;28;103233;-62
2022/04/17 01:49:31;;;;;;;3.40;3.00;;;;;;;4.14;67.86;99896.53;4995717;28;103371;-61
2022/04/17 01:52:00;;;;;;;3.50;3.17;;;;;;;4.08;67.37;99894.09;4995529;28;102725;-62
2022/04/17 01:54:32;;;;;;;3.50;3.20;;;;;;;4.10;68.01;99887.91;4995902;28;103029;-62
2022/04/17 01:57:00;;;;;;;3.50;3.03;;;;;;;4.09;67.38;99891.44;4992189;28;104283;-62
2022/04/17 01:59:28;;;;;;;3.28;2.97;;;;;;;4.04;68.21;99898.53;4989566;28;103309;-62
2022/04/17 02:01:57;;;;;;;4.25;3.05;;;;;;;4.10;67.75;99889.66;4989849;28;103053;-62
2022/04/17 02:04:27;;;;;;;4.07;3.30;;;;;;;4.02;68.26;99887.25;4995666;28;102955;-62
2022/04/17 02:06:55;;;;;;;4.05;3.30;;;;;;;3.92;68.60;99884.94;4990600;28;104284;-62
2022/04/17 02:09:23;;;;;;;3.77;3.43;;;;;;;3.95;68.66;99884.88;4993799;28;103223;-62
2022/04/17 02:11:53;;;;;;;4.20;3.22;;;;;;;4.04;68.23;99882.84;4993175;28;102839;-61
2022/04/17 02:14:21;;;;;;;3.40;3.10;;;;;;;3.85;69.26;99878.16;4969042;28;104176;-61
2022/04/17 02:16:49;;;;;;;4.32;3.30;;;;;;;3.81;69.72;99877.41;4991594;28;103321;-62
2022/04/17 02:19:17;;;;;;;4.23;3.30;;;;;;;3.87;68.97;99882.47;4968235;28;103208;-62
2022/04/17 02:21:45;;;;;;;3.58;3.28;;;;;;;3.82;69.39;99881.72;4995436;28;103055;-67
2022/04/17 02:24:15;;;;;;;3.42;3.03;;;;;;;3.81;69.18;99879.16;4976700;28;104106;-62
2022/04/17 02:26:43;;;;;;;3.83;3.20;;;;;;;3.86;68.72;99874.66;4995237;28;103291;-67
2022/04/17 02:29:12;;;;;;;4.50;3.35;;;;;;;3.80;69.35;99874.81;4996473;28;103330;-62
2022/04/17 02:31:43;;;;;;;3.50;3.05;;;;;;;3.83;68.63;99875.59;4970919;28;103109;-62
2022/04/17 02:34:10;;;;;;;5.10;3.40;;;;;;;3.76;68.71;99868.78;4998867;28;102674;-61
2022/04/17 02:36:38;;;;;;;3.40;3.10;;;;;;;3.67;69.39;99857.75;4996952;28;103267;-66
2022/04/17 02:39:06;;;;;;;3.50;3.20;;;;;;;3.68;69.40;99864.69;4971225;28;103311;-66
2022/04/17 02:41:34;;;;;;;3.97;3.40;;;;;;;3.55;70.56;99864.13;4999618;28;103395;-66
2022/04/17 02:44:06;;;;;;;3.80;3.50;;;;;;;3.45;70.59;99858.28;4998423;28;103933;-62
2022/04/17 02:49:21;;;;;;;3.80;3.30;;;;;;;3.62;69.32;99852.63;4995579;28;103091;-66
2022/04/17 02:51:49;;;;;;;3.95;3.40;;;;;;;3.47;69.85;99848.66;4971025;28;102780;-62
2022/04/17 02:54:17;;;;;;;3.42;3.13;;;;;;;3.48;69.99;99850.34;4996419;28;103985;-62
2022/04/17 02:56:45;;;;;;;3.70;3.35;;;;;;;3.34;70.87;99849.03;4997084;28;103773;-62
2022/04/17 02:59:14;;;;;;;3.53;3.05;;;;;;;3.38;70.74;99848.03;4997249;28;103234;-62
2022/04/17 03:07:14;;;;;;;3.97;3.50;;;;;;;3.32;70.71;99835.13;4998721;28;103219;-67
2022/04/17 03:09:42;;;;;;;4.60;3.60;;;;;;;3.32;70.73;99824.66;4994996;28;103179;-67
2022/04/17 03:12:10;;;;;;;3.90;3.50;;;;;;;3.39;70.33;99839.31;4992453;28;102594;-67
2022/04/17 03:14:38;;;;;;;4.63;3.60;;;;;;;3.47;70.58;99824.28;4971799;28;104027;-67
2022/04/17 03:17:07;;;;;;;4.13;3.30;;;;;;;3.35;70.46;99829.81;4996044;28;104149;-67
2022/04/17 03:19:35;;;;;;;4.05;3.40;;;;;;;3.63;69.51;99835.19;4998762;28;103169;-67
2022/04/17 03:22:07;;;;;;;3.60;3.20;;;;;;;3.49;69.07;99833.78;4992467;28;102688;-67
2022/04/17 03:24:35;;;;;;;4.25;3.50;;;;;;;3.45;69.98;99836.53;4977961;28;103836;-67
2022/04/17 03:27:05;;;;;;;4.10;3.57;;;;;;;3.29;70.12;99840.41;4975417;28;104323;-67
2022/04/17 03:29:33;;;;;;;3.80;3.42;;;;;;;3.20;70.71;99838.06;4968896;28;103253;-67
2022/04/17 03:32:01;;;;;;;3.50;3.20;;;;;;;3.07;71.55;99839.22;4972285;28;102568;-67
2022/04/17 03:34:31;;;;;;;4.13;3.45;;;;;;;3.05;71.39;99841.88;4997253;28;103916;-62
2022/04/17 03:36:59;;;;;;;3.80;3.28;;;;;;;2.85;72.10;99844.09;4996564;28;104140;-62
2022/04/17 03:39:27;;;;;;;4.20;3.70;;;;;;;2.83;72.54;99841.56;4997522;28;103227;-62
2022/04/17 03:41:55;;;;;;;3.92;3.50;;;;;;;2.80;72.30;99851.19;4994444;28;103182;-63
2022/04/17 03:44:26;;;;;;;3.90;3.53;;;;;;;2.76;73.22;99853.00;4973163;28;103532;-62
2022/04/17 03:46:54;;;;;;;4.53;3.38;;;;;;;2.63;72.63;99843.75;4967118;28;103944;-63
2022/04/17 03:49:22;;;;;;;4.87;3.50;;;;;;;2.84;72.08;99845.00;4997099;28;103239;-62
2022/04/17 03:51:51;;;;;;;3.70;3.40;;;;;;;2.90;71.52;99842.25;4996372;28;102781;-62
2022/04/17 03:54:19;;;;;;;3.80;3.50;;;;;;;2.91;72.34;99839.63;4994478;28;103890;-62
2022/04/17 03:56:50;;;;;;;3.70;3.40;;;;;;;2.78;72.71;99843.38;4975367;28;104132;-62
2022/04/17 03:59:18;;;;;;;3.80;3.30;;;;;;;2.84;72.96;99843.25;4997785;28;103214;-62
2022/04/17 04:01:46;;;;;;;3.92;3.60;;;;;;;2.68;73.37;99839.28;5000099;28;103393;-63
2022/04/17 04:04:15;;;;;;;4.80;3.70;;;;;;;2.74;73.23;99840.88;4995551;28;104128;-62
2022/04/17 04:06:43;;;;;;;3.97;3.42;;;;;;;2.84;72.69;99837.16;4977608;28;104941;-62
2022/04/17 04:09:12;;;;;;;4.97;3.80;;;;;;;2.99;71.56;99828.13;4965640;28;104239;-62
2022/04/17 04:11:45;;;;;;;5.43;3.78;;;;;;;2.82;72.52;99828.50;4993299;28;102929;-62
2022/04/17 04:14:15;;;;;;;5.55;3.95;;;;;;;2.63;73.60;99820.25;4968066;28;102738;-62
2022/04/17 04:16:43;;;;;;;4.35;3.95;;;;;;;2.60;73.61;99828.16;4977579;28;104081;-63
2022/04/17 04:19:13;;;;;;;4.13;3.72;;;;;;;2.67;73.12;99827.09;4995803;28;103191;-67
2022/04/17 04:21:48;;;;;;;4.82;3.83;;;;;;;2.60;73.60;99828.16;4994440;28;102538;-63
2022/04/17 04:24:19;;;;;;;3.83;3.33;;;;;;;2.59;73.52;99831.66;4995441;28;103995;-67
2022/04/17 04:28:33;;;;;;;4.28;3.60;;;;;;;2.65;73.01;99828.91;4995935;28;103972;-67
2022/04/17 04:29:37;;;;;;;3.95;3.65;;;;;;;2.64;73.22;99824.56;4996883;28;103179;-67
2022/04/17 04:32:06;;;;;;;4.03;3.65;;;;;;;2.63;72.83;99828.09;4995005;28;102765;-62
2022/04/17 04:34:34;;;;;;;3.60;3.30;;;;;;;2.72;73.10;99822.63;4971737;28;104201;-62
2022/04/17 04:37:05;;;;;;;4.60;3.65;;;;;;;2.64;73.37;99821.97;4993091;28;104178;-67
2022/04/17 04:39:34;;;;;;;3.90;3.50;;;;;;;2.60;73.49;99822.94;4996284;28;103172;-67
2022/04/17 04:42:05;;;;;;;4.00;3.70;;;;;;;2.56;73.83;99825.63;4995150;28;102854;-62
2022/04/17 04:44:33;;;;;;;4.05;3.65;;;;;;;2.55;74.30;99830.00;4975531;28;103977;-67
2022/04/17 04:47:00;;;;;;;4.32;3.58;;;;;;;2.43;74.40;99832.88;4993890;28;103691;-67
2022/04/17 04:49:30;;;;;;;3.72;3.42;;;;;;;2.41;74.23;99847.72;4988560;28;103564;-67
2022/04/17 04:52:00;;;;;;;3.65;3.35;;;;;;;2.59;73.61;99847.31;4978753;28;102977;-62
2022/04/17 04:54:31;;;;;;;3.83;3.38;;;;;;;2.68;73.64;99841.03;4996296;28;102640;-63
2022/04/17 04:57:01;;;;;;;3.60;3.30;;;;;;;2.98;72.70;99835.09;4987802;28;103194;-62
2022/04/17 04:59:29;;;;;;;4.55;3.33;;;;;;;3.07;71.59;99834.00;4996130;28;103228;-67
2022/04/17 05:01:57;;;;;;;4.05;3.28;;;;;;;3.07;71.97;99839.22;4997000;28;102591;-67
2022/04/17 05:04:25;;;;;;;4.10;3.67;;;;;;;2.99;73.00;99841.16;4970683;28;102753;-67
2022/04/17 05:06:53;;;;;;;4.57;3.60;;;;;;;3.13;72.61;99839.94;4996510;28;103987;-67
2022/04/17 05:09:21;;;;;;;4.97;3.97;;;;;;;3.34;71.78;99834.19;4993322;28;103204;-63
2022/04/17 05:11:50;;;;;;;3.80;3.40;;;;;;;3.65;70.03;99831.63;4990556;28;102649;-62
2022/04/17 05:14:20;;;;;;;4.00;3.60;;;;;;;3.60;70.09;99830.91;4986713;28;102833;-62
2022/04/17 05:16:48;;;;;;;4.10;3.70;;;;;;;3.38;71.16;99840.19;4985614;28;103869;-62
2022/04/17 05:19:20;;;;;;;4.25;3.60;;;;;;;3.53;70.08;99841.56;4968617;28;104414;-66
2022/04/17 05:21:51;;;;;;;4.67;3.60;;;;;;;3.39;70.30;99844.53;4968571;28;102745;-64
2022/04/17 05:24:19;;;;;;;5.18;3.60;;;;;;;3.73;69.60;99834.06;4988848;28;102703;-63
2022/04/17 05:26:47;;;;;;;4.05;3.65;;;;;;;3.77;70.09;99838.28;4973245;28;104018;-67
2022/04/17 05:29:15;;;;;;;3.95;3.65;;;;;;;3.83;69.73;99841.59;4994132;28;103325;-63
2022/04/17 05:31:45;;;;;;;4.10;3.70;;;;;;;3.77;70.36;99838.28;4969385;28;102735;-62
2022/04/17 05:34:13;;;;;;;4.32;3.45;;;;;;;3.88;69.68;99841.47;4993192;28;103985;-67
2022/04/17 05:36:41;;;;;;;4.00;3.60;;;;;;;4.14;69.22;99835.50;4994574;28;103277;-67
2022/04/17 05:39:09;;;;;;;4.53;3.72;;;;;;;4.33;68.47;99845.41;4969601;28;104833;-62
2022/04/17 05:41:38;;;;;;;3.97;3.60;;;;;;;4.20;69.89;99845.81;4995117;28;102749;-63
2022/04/17 05:44:08;;;;;;;4.30;3.90;;;;;;;4.18;69.90;99842.38;4987272;28;103567;-67
2022/04/17 05:46:41;;;;;;;4.30;3.90;;;;;;;4.09;71.08;99846.97;4960535;28;104238;-62
2022/04/17 05:49:13;;;;;;;4.17;3.77;;;;;;;4.36;71.12;99849.69;4994353;28;103671;-67
2022/04/17 05:51:41;;;;;;;4.37;3.70;;;;;;;4.35;70.02;99848.81;4985075;28;102660;-66
2022/04/17 05:54:09;;;;;;;4.38;3.80;;;;;;;4.64;69.85;99845.34;4988774;28;103162;-67
2022/04/17 05:56:40;;;;;;;4.80;3.95;;;;;;;4.47;68.41;99847.63;4967351;28;103727;-67
2022/04/17 05:59:08;;;;;;;4.18;3.75;;;;;;;4.87;69.60;99848.13;4965934;28;103160;-66
2022/04/17 06:01:36;;;;;;;4.47;4.00;;;;;;;5.09;67.25;99849.16;4987344;28;103228;-67
2022/04/17 06:04:04;;;;;;;4.38;3.78;;;;;;;5.14;67.63;99851.63;4975960;28;103881;-67
2022/04/17 06:06:36;;;;;;;4.50;4.10;;;;;;;5.25;67.21;99849.50;4976810;28;103966;-62
2022/04/17 06:09:05;;;;;;;5.07;4.57;;;;;;;5.40;64.90;99848.16;4968883;28;103519;-66
2022/04/17 06:11:34;;;;;;;5.22;4.70;;;;;;;5.52;66.02;99842.50;4970558;28;102839;-66
2022/04/17 06:14:02;;;;;;;4.63;4.23;;;;;;;5.31;64.76;99837.97;4950329;28;103723;-62
2022/04/17 06:16:32;;;;;;;5.28;4.78;;;;;;;5.34;64.22;99837.88;4976257;28;104279;-62
2022/04/17 06:19:00;;;;;;;5.25;4.75;;;;;;;5.80;64.92;99838.03;4985167;28;103264;-62
2022/04/17 06:21:28;;;;;;;4.60;4.10;;;;;;;5.83;62.85;99843.16;4981394;28;103265;-63
2022/04/17 06:23:57;;;;;;;4.10;3.70;;;;;;;6.01;62.38;99847.78;4964693;28;103976;-62
2022/04/17 06:26:25;;;;;;;4.82;4.35;;;;;;;6.22;62.13;99828.66;4982079;28;103099;-67
2022/04/17 06:28:53;;;;;;;3.97;3.57;;;;;;;6.57;61.36;99826.47;4962898;28;103223;-66
2022/04/17 06:31:21;;;;;;;3.50;3.20;;;;;;;7.30;57.54;99830.50;4984196;28;102976;-66
2022/04/17 06:33:49;;;;;;;4.00;3.40;;;;;;;6.84;57.82;99833.28;4985692;28;103653;-67
2022/04/17 06:36:17;;;;;;;3.30;3.00;;;;;;;6.66;58.32;99821.69;4970917;28;104027;-66
2022/04/17 06:38:46;;;;;;;3.33;3.03;;;;;;;7.31;57.18;99826.09;4981294;28;103335;-67
2022/04/17 06:41:15;;;;;;;3.40;3.10;;;;;;;6.86;56.96;99832.28;4967284;28;102914;-66
2022/04/17 06:43:50;;;;;;;4.22;3.15;;;;;;;7.02;57.27;99834.31;4986079;28;102637;-67
2022/04/17 06:46:18;;;;;;;3.53;3.22;;;;;;;7.39;56.52;99822.22;4981474;28;104322;-67
2022/04/17 06:48:46;;;;;;;2.77;2.57;;;;;;;7.83;55.73;99812.44;4981417;28;103457;-67
2022/04/17 06:51:14;;;;;;;6.10;3.15;;;;;;;8.36;54.52;99819.75;4988934;28;103608;-62
2022/04/17 06:53:45;;;;;;;3.10;2.78;;;;;;;8.23;55.28;99815.91;4988084;28;102810;-62
2022/04/17 06:56:16;;;;;;;3.40;3.10;;;;;;;8.83;54.47;99820.16;4991066;28;103311;-63
2022/04/17 06:58:45;;;;;;;2.60;2.40;;;;;;;8.95;52.37;99814.31;4987102;28;103231;-67
2022/04/17 07:01:14;;;;;;;2.80;2.60;;;;;;;9.14;53.57;99805.44;4985413;28;103568;-67
2022/04/17 07:03:42;;;;;;;2.90;2.60;;;;;;;9.19;52.50;99815.75;4985214;28;104052;-67
2022/04/17 07:06:10;;;;;;;2.60;2.40;;;;;;;9.47;52.19;99813.44;4986549;28;103220;-66
2022/04/17 07:08:38;;;;;;;3.38;2.70;;;;;;;9.31;52.56;99812.53;4988546;28;103202;-67
2022/04/17 07:11:06;;;;;;;3.07;2.60;;;;;;;9.12;50.95;99814.34;4991718;28;102631;-67
2022/04/17 07:13:35;;;;;;;2.90;2.25;;;;;;;9.50;50.77;99813.31;4967569;28;104168;-70
2022/04/17 07:16:05;;;;;;;3.23;2.40;;;;;;;9.43;50.48;99806.59;4972462;28;103194;-65
2022/04/17 07:18:33;;;;;;;3.70;2.40;;;;;;;9.71;50.29;99792.91;4989688;28;103221;-65
2022/04/17 07:21:04;;;;;;;2.97;2.67;;;;;;;9.97;50.59;99799.44;4990329;28;102572;-65
2022/04/17 07:23:32;;;;;;;2.80;2.50;;;;;;;10.11;49.01;99795.13;4987881;28;103260;-65
2022/04/17 07:26:00;;;;;;;2.60;2.40;;;;;;;10.15;49.02;99790.59;4986331;28;103255;-65
2022/04/17 07:28:28;;;;;;;2.67;2.47;;;;;;;10.42;48.28;99792.59;4988453;28;103039;-65
2022/04/17 07:30:56;;;;;;;2.57;2.20;;;;;;;10.12;48.23;99780.16;4991850;28;102758;-65
2022/04/17 07:33:25;;;;;;;2.53;2.30;;;;;;;10.50;48.34;99780.75;4989939;28;103084;-65
2022/04/17 07:35:53;;;;;;;3.00;2.50;;;;;;;10.64;47.29;99768.47;4977603;28;104262;-65
2022/04/17 07:38:21;;;;;;;2.50;2.30;;;;;;;11.20;46.09;99765.25;4989360;28;103240;-63
2022/04/17 07:40:51;;;;;;;3.10;2.50;;;;;;;10.81;47.04;99767.53;4985192;28;102896;-64
2022/04/17 07:43:22;;;;;;;3.22;2.38;;;;;;;11.20;46.21;99765.25;4974216;28;103090;-63
2022/04/17 07:45:50;;;;;;;2.40;2.20;;;;;;;11.46;46.02;99761.06;4987310;28;103416;-65
2022/04/17 07:48:20;;;;;;;3.70;2.40;;;;;;;11.75;45.89;99756.72;4987801;28;103171;-63
2022/04/17 07:50:52;;;;;;;3.25;2.45;;;;;;;12.12;45.43;99765.00;4983489;28;102613;-63
2022/04/17 07:53:20;;;;;;;3.05;1.95;;;;;;;12.88;43.44;99760.13;4987333;28;103818;-63
2022/04/17 07:55:50;;;;;;;3.72;2.30;;;;;;;11.36;46.05;99770.50;4987559;28;104289;-65
2022/04/17 07:58:25;;;;;;;3.42;2.25;;;;;;;11.55;43.95;99765.81;4987385;28;104160;-65
2022/04/17 08:00:58;;;;;;;2.40;2.20;;;;;;;12.10;43.22;99761.56;4988342;28;102673;-63
2022/04/17 08:03:45;;;;;;;2.55;2.05;;;;;;;12.37;43.90;99759.00;4991440;28;103379;-65
2022/04/17 08:06:17;;;;;;;2.30;2.10;;;;;;;13.09;41.08;99748.13;4990862;28;104137;-63
2022/04/17 08:08:46;;;;;;;2.20;2.00;;;;;;;13.46;39.59;99750.97;4970371;28;104107;-63
2022/04/17 08:11:14;;;;;;;1.80;1.70;;;;;;;13.08;40.58;99741.09;4987652;28;102590;-63
2022/04/17 08:13:46;;;;;;;2.90;2.15;;;;;;;13.68;40.01;99745.91;4987318;28;102946;-63
2022/04/17 08:16:15;;;;;;;1.95;1.80;;;;;;;14.32;38.77;99737.81;4985504;28;104017;-63
2022/04/17 08:18:45;;;;;;;2.22;1.85;;;;;;;14.48;39.06;99738.41;4985724;28;103248;-65
2022/04/17 08:21:16;;;;;;;2.28;2.00;;;;;;;14.20;39.23;99745.78;4969791;28;103162;-65
2022/04/17 08:23:44;;;;;;;2.47;1.95;;;;;;;14.66;38.26;99746.88;4970754;28;102690;-63
2022/04/17 08:26:12;;;;;;;5.50;1.90;;;;;;;12.94;39.25;99738.47;4971101;28;104126;-63
2022/04/17 08:28:40;;;;;;;2.25;2.00;;;;;;;15.03;38.89;99742.38;4969582;28;104163;-63
2022/04/17 08:31:10;;;;;;;2.75;1.92;;;;;;;15.59;39.05;99741.66;4989006;28;102602;-62
2022/04/17 08:33:38;;;;;;;1.90;1.70;;;;;;;15.30;37.47;99734.16;4990360;28;104052;-65
2022/04/17 08:36:08;;;;;;;2.78;2.00;;;;;;;15.89;37.14;99729.56;4988817;28;103062;-65
2022/04/17 08:38:38;;;;;;;2.17;1.73;;;;;;;15.13;36.14;99730.06;4985045;28;103355;-63
2022/04/17 08:41:06;;;;;;;2.75;1.90;;;;;;;15.57;35.33;99724.94;4985485;28;102641;-63
2022/04/17 08:43:34;;;;;;;3.17;1.80;;;;;;;15.37;35.97;99719.41;4987990;28;102885;-63
2022/04/17 08:46:03;;;;;;;1.88;1.65;;;;;;;16.15;36.49;99699.06;4986086;28;103048;-63
2022/04/17 08:48:33;;;;;;;3.22;2.20;;;;;;;15.98;34.22;99703.06;4991140;28;102651;-63
2022/04/17 08:51:05;;;;;;;2.38;1.85;;;;;;;15.88;35.35;99701.25;4989630;28;102524;-63
2022/04/17 08:53:34;;;;;;;3.38;1.67;;;;;;;16.68;35.37;99684.09;4987856;28;103525;-63
2022/04/17 08:56:04;;;;;;;2.60;1.65;;;;;;;16.91;37.68;99679.53;4970572;28;103777;-63
2022/04/17 08:58:34;;;;;;;2.53;1.90;;;;;;;15.91;35.05;99679.69;4989488;28;103210;-64
2022/04/17 09:01:01;;;;;;;2.53;1.63;;;;;;;15.80;33.55;99677.03;4987956;28;102771;-63
2022/04/17 09:03:30;;;;;;;2.27;1.80;;;;;;;15.88;35.32;99667.47;4958358;28;102843;-63
2022/04/17 09:05:58;;;;;;;3.25;1.73;;;;;;;16.73;35.15;99664.06;4985705;28;103330;-63
2022/04/17 09:08:28;;;;;;;2.80;1.80;;;;;;;16.90;35.05;99672.53;4986607;28;103456;-63
2022/04/17 09:10:57;;;;;;;2.40;1.70;;;;;;;17.98;32.68;99654.25;4988015;28;102618;-63
2022/04/17 09:13:34;;;;;;;1.93;1.60;;;;;;;17.79;33.22;99654.19;4988701;28;103975;-63
2022/04/17 09:16:03;;;;;;;2.90;1.50;;;;;;;16.88;32.96;99653.94;4969465;28;104215;-63
2022/04/17 09:18:32;;;;;;;2.45;1.50;;;;;;;17.30;31.59;99646.81;4993805;28;104376;-63
2022/04/17 09:21:02;;;;;;;2.45;1.90;;;;;;;17.13;31.50;99634.03;4982701;28;102959;-65
2022/04/17 09:23:36;;;;;;;2.20;1.75;;;;;;;18.24;32.94;99634.09;4987837;28;103676;-63
2022/04/17 09:26:05;;;;;;;1.80;1.50;;;;;;;16.95;31.64;99628.44;4987339;28;104003;-63
2022/04/17 09:28:37;;;;;;;1.90;1.50;;;;;;;17.76;31.87;99628.56;4984797;28;103503;-65
2022/04/17 09:31:12;;;;;;;1.75;1.33;;;;;;;17.42;33.13;99624.41;4988122;28;102663;-63
2022/04/17 09:33:49;;;;;;;1.92;1.30;;;;;;;18.07;32.00;99626.72;4985339;28;103815;-63
2022/04/17 09:36:18;;;;;;;2.80;1.77;;;;;;;18.33;31.06;99621.72;4968965;28;104190;-65
2022/04/17 09:38:47;;;;;;;1.70;1.50;;;;;;;16.63;31.41;99623.13;4990221;28;103179;-63
2022/04/17 09:41:17;;;;;;;1.73;1.40;;;;;;;17.70;32.14;99615.72;4988578;28;103285;-63
2022/04/17 09:43:48;;;;;;;2.17;1.50;;;;;;;16.24;33.91;99618.34;4984145;28;102685;-63
2022/04/17 09:46:16;;;;;;;1.67;1.52;;;;;;;17.02;33.38;99621.59;4985560;28;103825;-63
2022/04/17 09:48:46;;;;;;;2.67;1.47;;;;;;;17.83;33.07;99608.31;4978592;28;103189;-63
2022/04/17 09:51:22;;;;;;;1.80;1.37;;;;;;;18.39;32.67;99613.13;4986465;28;102813;-63
2022/04/17 09:53:59;;;;;;;1.48;1.25;;;;;;;18.86;30.36;99604.31;4993986;28;102684;-65
2022/04/17 09:56:33;;;;;;;1.73;1.30;;;;;;;18.73;29.65;99593.06;4984874;28;104082;-66
2022/04/17 09:59:16;;;;;;;1.60;1.40;;;;;;;19.03;30.79;99606.28;4984054;28;103234;-64
2022/04/17 10:01:49;;;;;;;1.93;1.20;;;;;;;18.36;30.99;99600.03;4986224;28;102695;-63
2022/04/17 10:04:19;;;;;;;2.28;1.50;;;;;;;17.93;29.86;99603.03;4982765;28;102796;-63
2022/04/17 10:06:49;;;;;;;2.13;1.30;;;;;;;17.77;30.76;99597.31;4989727;28;103307;-63
2022/04/17 10:09:17;;;;;;;1.97;1.40;;;;;;;17.02;32.21;99594.06;4987355;28;103191;-63
2022/04/17 10:11:45;;;;;;;1.47;1.37;;;;;;;18.77;30.87;99589.13;4985600;28;103107;-63
2022/04/17 10:14:15;;;;;;;1.52;1.40;;;;;;;18.88;31.00;99591.66;4989507;28;102791;-66
2022/04/17 10:16:46;;;;;;;1.73;1.30;;;;;;;19.05;30.35;99582.06;4987153;28;103816;-63
2022/04/17 10:19:15;;;;;;;4.13;1.38;;;;;;;18.77;30.02;99583.78;4988672;28;103253;-66
2022/04/17 10:21:43;;;;;;;1.85;1.35;;;;;;;18.78;30.58;99577.41;4983291;28;102661;-66
2022/04/17 10:24:15;;;;;;;1.40;1.30;;;;;;;18.42;29.14;99564.69;4987007;28;102644;-63
2022/04/17 10:26:47;;;;;;;1.73;1.38;;;;;;;18.95;30.25;99567.81;4983710;28;103804;-64
2022/04/17 10:29:23;;;;;;;2.38;1.50;;;;;;;17.40;31.44;99572.97;4989009;28;103160;-65
2022/04/17 10:32:09;;;;;;;2.60;1.30;;;;;;;16.47;32.96;99576.47;4987272;28;102655;-66
2022/04/17 10:35:00;;;;;;;2.00;1.27;;;;;;;18.55;30.47;99562.66;4987121;28;102826;-66
2022/04/17 10:38:04;;;;;;;2.13;1.30;;;;;;;18.45;29.87;99556.38;4989384;28;103280;-66
2022/04/17 10:40:32;;;;;;;2.83;1.42;;;;;;;16.73;31.53;99570.66;4948222;28;103230;-66
2022/04/17 10:43:01;;;;;;;1.60;1.40;;;;;;;17.44;31.49;99565.50;4990221;28;102670;-66
2022/04/17 10:45:31;;;;;;;3.27;1.40;;;;;;;16.99;32.72;99555.13;4972220;28;102772;-66
2022/04/17 10:48:08;;;;;;;2.10;1.60;;;;;;;16.78;31.37;99552.47;4989657;28;103495;-66
2022/04/17 10:50:43;;;;;;;10.20;9.30;;;;;;;18.15;30.59;99532.44;4990135;28;103196;-63
2022/04/17 10:53:24;;;;;;;2.88;1.80;;;;;;;18.28;31.15;99543.69;4988066;28;102740;-66
2022/04/17 10:56:05;;;;;;;1.88;1.40;;;;;;;17.31;31.77;99537.22;4991921;28;103006;-66
2022/04/17 10:58:37;;;;;;;1.65;1.17;;;;;;;15.51;30.78;99538.97;4987729;28;104092;-66
2022/04/17 11:01:07;;;;;;;2.43;1.30;;;;;;;15.54;33.48;99533.41;4990734;28;103234;-67
2022/04/17 11:03:36;;;;;;;1.20;1.05;;;;;;;15.43;32.13;99525.41;4974096;28;102926;-65
2022/04/17 11:06:31;;;;;;;2.45;1.60;;;;;;;17.25;30.97;99511.03;4989942;28;102725;-63
2022/04/17 11:09:10;;;;;;;2.20;1.42;;;;;;;17.94;30.48;99524.50;4972826;28;104245;-66
2022/04/17 11:11:39;;;;;;;1.30;1.20;;;;;;;16.27;31.87;99515.94;4990957;28;103193;-65
2022/04/17 11:14:12;;;;;;;1.60;1.47;;;;;;;16.69;31.42;99523.91;4988528;28;102568;-66
2022/04/17 11:16:45;;;;;;;1.40;1.20;;;;;;;17.63;29.76;99521.03;4972476;28;102847;-65
2022/04/17 11:19:15;;;;;;;1.45;1.10;;;;;;;16.40;30.80;99520.13;4990337;28;104101;-66
2022/04/17 11:21:44;;;;;;;2.03;1.40;;;;;;;15.10;31.98;99517.41;4972540;28;103849;-64
2022/04/17 11:24:12;;;;;;;2.17;1.27;;;;;;;16.32;32.03;99524.38;4989065;28;102958;-66
2022/04/17 11:27:09;;;;;;;1.67;1.00;;;;;;;17.60;30.16;99505.28;4993312;28;103004;-66
2022/04/17 11:29:43;;;;;;;1.88;1.35;;;;;;;17.13;31.20;99505.88;4990789;28;103163;-66
2022/04/17 11:32:48;;;;;;;2.13;1.40;;;;;;;16.42;32.33;99499.50;4994517;28;103260;-66
2022/04/17 11:35:20;;;;;;;2.58;1.63;;;;;;;16.68;31.57;99484.84;4992164;28;102723;-63
2022/04/17 11:37:56;;;;;;;1.70;1.10;;;;;;;17.28;30.71;99499.22;4988712;28;102760;-64
2022/04/17 11:40:26;;;;;;;2.83;2.30;;;;;;;18.54;30.70;99488.69;4989419;28;103291;-63
2022/04/17 11:42:56;;;;;;;2.20;2.00;;;;;;;18.78;28.05;99470.34;4990338;28;103226;-63
2022/04/17 11:45:26;;;;;;;2.43;2.10;;;;;;;19.24;29.18;99469.50;4977597;28;102868;-63
2022/04/17 11:47:56;;;;;;;1.98;1.67;;;;;;;19.66;28.70;99457.34;4988554;28;104305;-66
2022/04/17 11:50:27;;;;;;;2.63;2.42;;;;;;;18.22;31.66;99464.00;4993241;28;103081;-63
2022/04/17 11:52:57;;;;;;;1.85;1.30;;;;;;;17.07;31.27;99464.56;4974048;28;104362;-64
2022/04/17 11:55:27;;;;;;;1.70;1.30;;;;;;;17.05;30.72;99468.34;4993549;28;102677;-63